createdAt,value
2019-05-20T00:00:43.703Z,73.65
2019-05-20T00:03:13.473Z,73.66
2019-05-20T00:05:43.302Z,73.75
2019-05-20T00:08:13.287Z,73.96
2019-05-20T00:10:43.052Z,74.23
2019-05-20T00:13:12.975Z,74.15
2019-05-20T00:15:42.875Z,73.80
2019-05-20T00:18:12.791Z,73.77
2019-05-20T00:20:42.565Z,73.54
2019-05-20T00:23:13.337Z,73.24
2019-05-20T00:25:43.096Z,73.16
2019-05-20T00:28:12.853Z,73.28
2019-05-20T00:30:42.798Z,73.19
2019-05-20T00:33:12.753Z,73.27
2019-05-20T00:35:43.857Z,73.42
2019-05-20T00:38:13.739Z,73.67
2019-05-20T00:40:43.581Z,73.58
2019-05-20T00:43:13.473Z,73.76
2019-05-20T00:45:43.316Z,74.06
2019-05-20T00:48:13.081Z,74.28
2019-05-20T00:50:43.100Z,74.80
2019-05-20T00:53:13.087Z,75.06
2019-05-20T00:55:42.974Z,75.21
2019-05-20T00:58:12.751Z,75.42
2019-05-20T01:00:42.765Z,75.74
2019-05-20T01:03:12.623Z,75.70
2019-05-20T01:05:42.432Z,75.79
2019-05-20T01:08:12.185Z,75.81
2019-05-20T01:10:42.181Z,75.87
2019-05-20T01:13:11.969Z,75.97
2019-05-20T01:15:41.869Z,76.46
2019-05-20T01:18:11.662Z,76.42
2019-05-20T01:20:41.696Z,76.42
2019-05-20T01:23:11.449Z,76.61
2019-05-20T01:25:41.255Z,76.65
2019-05-20T01:28:11.150Z,77.05
2019-05-20T01:30:41.083Z,77.32
2019-05-20T01:33:14.127Z,77.04
2019-05-20T01:35:42.490Z,76.98
2019-05-20T01:38:12.322Z,77.09
2019-05-20T01:40:42.185Z,76.93
2019-05-20T01:43:12.088Z,77.05
2019-05-20T01:45:42.033Z,76.96
2019-05-20T01:48:11.903Z,77.14
2019-05-20T01:50:41.860Z,77.10
2019-05-20T01:53:11.945Z,77.18
2019-05-20T01:55:41.793Z,77.51
2019-05-20T01:58:11.674Z,77.51
2019-05-20T02:00:41.488Z,77.89
2019-05-20T02:03:11.359Z,78.08
2019-05-20T02:05:41.154Z,77.84
2019-05-20T02:08:10.967Z,77.92
2019-05-20T02:10:40.771Z,77.82
2019-05-20T02:13:10.667Z,78.11
2019-05-20T02:15:46.278Z,77.95
2019-05-20T02:18:16.178Z,78.06
2019-05-20T02:20:46.021Z,77.90
2019-05-20T02:23:16.171Z,77.80
2019-05-20T02:25:47.324Z,77.51
2019-05-20T02:28:17.162Z,77.52
2019-05-20T02:30:47.082Z,77.59
2019-05-20T02:33:16.995Z,77.50
2019-05-20T02:35:46.830Z,77.64
2019-05-20T02:38:16.701Z,77.67
2019-05-20T02:40:47.599Z,77.65
2019-05-20T02:43:17.359Z,77.72
2019-05-20T02:45:47.218Z,77.77
2019-05-20T02:48:17.137Z,78.15
2019-05-20T02:50:47.063Z,78.28
2019-05-20T02:53:16.940Z,78.08
2019-05-20T02:55:46.745Z,77.99
2019-05-20T02:58:16.545Z,78.22
2019-05-20T03:00:46.327Z,78.16
2019-05-20T03:03:16.196Z,77.98
2019-05-20T03:05:46.055Z,77.95
2019-05-20T03:08:15.964Z,77.81
2019-05-20T03:10:45.650Z,77.90
2019-05-20T03:13:15.414Z,77.89
2019-05-20T03:15:46.347Z,77.71
2019-05-20T03:18:16.082Z,77.72
2019-05-20T03:20:45.858Z,77.66
2019-05-20T03:23:16.641Z,77.76
2019-05-20T03:25:46.515Z,77.75
2019-05-20T03:28:16.365Z,77.74
2019-05-20T03:30:46.138Z,77.41
2019-05-20T03:33:16.120Z,77.41
2019-05-20T03:35:46.132Z,77.05
2019-05-20T03:38:16.044Z,76.87
2019-05-20T03:40:45.860Z,76.86
2019-05-20T03:43:15.660Z,76.68
2019-05-20T03:45:45.427Z,76.52
2019-05-20T03:48:15.163Z,76.45
2019-05-20T03:50:44.916Z,76.15
2019-05-20T03:53:14.833Z,76.21
2019-05-20T03:55:45.084Z,75.62
2019-05-20T03:58:14.928Z,75.34
2019-05-20T04:00:46.164Z,75.45
2019-05-20T04:03:16.484Z,74.83
2019-05-20T04:05:46.447Z,74.58
2019-05-20T04:08:16.251Z,74.46
2019-05-20T04:10:46.147Z,74.12
2019-05-20T04:13:16.026Z,74.02
2019-05-20T04:15:45.962Z,73.56
2019-05-20T04:18:15.851Z,73.81
2019-05-20T04:20:45.745Z,73.44
2019-05-20T04:23:15.610Z,73.43
2019-05-20T04:25:45.454Z,73.41
2019-05-20T04:28:15.171Z,73.28
2019-05-20T04:30:45.078Z,72.85
2019-05-20T04:33:14.898Z,72.47
2019-05-20T04:35:49.248Z,72.59
2019-05-20T04:38:16.274Z,72.39
2019-05-20T04:40:46.118Z,72.64
2019-05-20T04:43:15.913Z,72.59
2019-05-20T04:45:45.895Z,72.44
2019-05-20T04:48:15.685Z,72.45
2019-05-20T04:50:45.448Z,72.37
2019-05-20T04:53:15.158Z,72.99
2019-05-20T04:55:44.989Z,73.66
2019-05-20T04:58:14.924Z,73.65
2019-05-20T05:00:55.444Z,73.76
2019-05-20T05:03:25.201Z,74.40
2019-05-20T05:05:55.384Z,74.35
2019-05-20T05:08:25.441Z,74.75
2019-05-20T05:10:55.556Z,74.70
2019-05-20T05:13:25.814Z,74.55
2019-05-20T05:15:55.736Z,75.07
2019-05-20T05:18:25.627Z,75.12
2019-05-20T05:20:56.492Z,75.47
2019-05-20T05:23:26.472Z,74.91
2019-05-20T05:25:56.618Z,75.05
2019-05-20T05:28:27.657Z,74.68
2019-05-20T05:30:57.497Z,74.88
2019-05-20T05:33:27.540Z,74.72
2019-05-20T05:35:57.315Z,74.22
2019-05-20T05:38:27.181Z,74.42
2019-05-20T05:40:57.123Z,74.38
2019-05-20T05:43:26.872Z,74.37
2019-05-20T05:45:56.737Z,73.91
2019-05-20T05:48:26.660Z,74.11
2019-05-20T05:50:56.635Z,73.45
2019-05-20T05:53:26.527Z,72.94
2019-05-20T05:55:56.279Z,73.11
2019-05-20T05:58:27.230Z,72.83
2019-05-20T06:00:57.121Z,72.65
2019-05-20T06:03:27.045Z,72.99
2019-05-20T06:06:11.684Z,72.44
2019-05-20T06:08:28.435Z,71.87
2019-05-20T06:10:58.437Z,72.37
2019-05-20T06:13:29.419Z,71.86
2019-05-20T06:15:59.255Z,71.53
2019-05-20T06:18:29.081Z,71.55
2019-05-20T06:20:58.869Z,70.80
2019-05-20T06:23:28.644Z,70.18
2019-05-20T06:25:58.450Z,69.71
2019-05-20T06:28:28.273Z,69.71
2019-05-20T06:30:58.298Z,69.16
2019-05-20T06:33:28.172Z,69.54
2019-05-20T06:35:58.051Z,68.92
2019-05-20T06:38:43.070Z,67.90
2019-05-20T06:41:12.996Z,67.01
2019-05-20T06:43:42.901Z,66.45
2019-05-20T06:46:12.813Z,66.49
2019-05-20T06:48:42.696Z,66.89
2019-05-20T06:51:12.621Z,67.05
2019-05-20T06:53:42.441Z,66.80
2019-05-20T06:56:12.422Z,66.01
2019-05-20T06:58:42.219Z,66.05
2019-05-20T07:01:12.064Z,66.02
2019-05-20T07:03:42.006Z,66.32
2019-05-20T07:06:11.908Z,66.31
2019-05-20T07:08:41.827Z,66.23
2019-05-20T07:11:11.964Z,65.33
2019-05-20T07:13:41.926Z,65.27
2019-05-20T07:16:11.893Z,64.38
2019-05-20T07:18:41.776Z,64.21
2019-05-20T07:21:11.656Z,63.51
2019-05-20T07:23:41.616Z,63.44
2019-05-20T07:26:11.513Z,63.40
2019-05-20T07:28:41.336Z,63.41
2019-05-20T07:31:11.249Z,63.52
2019-05-20T07:33:41.122Z,63.71
2019-05-20T07:36:10.922Z,63.00
2019-05-20T07:38:40.717Z,63.62
2019-05-20T07:41:10.565Z,62.29
2019-05-20T07:43:40.416Z,62.28
2019-05-20T07:46:11.134Z,62.10
2019-05-20T07:48:41.545Z,59.97
2019-05-20T07:51:12.586Z,58.26
2019-05-20T07:53:43.639Z,52.79
2019-05-20T07:56:16.708Z,50.69
2019-05-20T07:58:50.062Z,51.69
2019-05-20T08:01:20.000Z,51.70
2019-05-20T08:03:49.773Z,49.59
2019-05-20T08:06:19.823Z,46.32
2019-05-20T08:08:49.767Z,42.96
2019-05-20T08:11:19.482Z,41.35
2019-05-20T08:13:49.263Z,40.02
2019-05-20T08:16:19.171Z,40.52
2019-05-20T08:18:49.128Z,41.41
2019-05-20T08:21:19.362Z,38.73
2019-05-20T08:23:50.309Z,37.32
2019-05-20T08:26:20.347Z,35.63
2019-05-20T08:28:50.284Z,34.22
2019-05-20T08:31:20.141Z,33.02
2019-05-20T08:33:49.973Z,32.47
2019-05-20T08:36:19.939Z,32.69
2019-05-20T08:38:49.640Z,33.17
2019-05-20T08:41:19.605Z,34.36
2019-05-20T08:43:49.367Z,34.06
2019-05-20T08:46:19.214Z,34.45
2019-05-20T08:48:49.033Z,33.82
2019-05-20T08:51:19.002Z,33.24
2019-05-20T08:53:48.891Z,33.58
2019-05-20T08:56:18.922Z,33.27
2019-05-20T08:58:48.727Z,32.81
2019-05-20T09:01:18.458Z,32.50
2019-05-20T09:03:48.301Z,32.89
2019-05-20T09:06:20.695Z,32.51
2019-05-20T09:08:49.670Z,32.30
2019-05-20T09:11:19.362Z,31.22
2019-05-20T09:13:49.089Z,31.70
2019-05-20T09:16:19.078Z,31.64
2019-05-20T09:18:48.974Z,31.36
2019-05-20T09:21:18.939Z,31.05
2019-05-20T09:23:48.823Z,30.30
2019-05-20T09:26:18.647Z,30.12
2019-05-20T09:28:48.681Z,31.51
2019-05-20T09:31:18.600Z,30.81
2019-05-20T09:33:48.565Z,31.42
2019-05-20T09:36:18.401Z,31.58
2019-05-20T09:38:48.264Z,31.95
2019-05-20T09:41:18.241Z,30.93
2019-05-20T09:43:48.146Z,31.55
2019-05-20T09:46:18.000Z,31.47
2019-05-20T09:48:47.791Z,31.21
2019-05-20T09:51:17.791Z,30.97
2019-05-20T09:53:47.583Z,29.49
2019-05-20T09:56:17.320Z,28.92
2019-05-20T09:58:47.113Z,28.69
2019-05-20T10:01:16.909Z,28.39
2019-05-20T10:03:46.750Z,28.89
2019-05-20T10:06:16.635Z,28.50
2019-05-20T10:08:46.384Z,28.36
2019-05-20T10:11:16.235Z,28.82
2019-05-20T10:13:46.158Z,29.55
2019-05-20T10:16:16.048Z,28.71
2019-05-20T10:18:45.935Z,29.19
2019-05-20T10:21:15.795Z,28.85
2019-05-20T10:23:45.548Z,28.86
2019-05-20T10:26:15.317Z,28.85
2019-05-20T10:28:47.346Z,29.18
2019-05-20T10:31:16.550Z,28.84
2019-05-20T10:33:46.595Z,28.63
2019-05-20T10:36:16.334Z,28.46
2019-05-20T10:38:58.121Z,28.69
2019-05-20T10:41:17.711Z,28.23
2019-05-20T10:43:47.527Z,27.57
2019-05-20T10:46:17.360Z,27.33
2019-05-20T10:48:48.119Z,26.68
2019-05-20T10:51:17.486Z,26.93
2019-05-20T10:53:47.265Z,27.02
2019-05-20T10:56:17.113Z,26.90
2019-05-20T10:58:46.904Z,27.27
2019-05-20T11:01:16.659Z,27.11
2019-05-20T11:03:46.449Z,26.17
2019-05-20T11:06:16.286Z,25.99
2019-05-20T11:08:46.185Z,26.25
2019-05-20T11:11:16.057Z,25.39
2019-05-20T11:13:45.951Z,25.00
2019-05-20T11:16:15.788Z,25.32
2019-05-20T11:18:46.634Z,25.65
2019-05-20T11:21:16.532Z,26.50
2019-05-20T11:23:46.335Z,26.25
2019-05-20T11:26:16.158Z,26.47
2019-05-20T11:28:46.013Z,26.60
2019-05-20T11:31:15.881Z,25.61
2019-05-20T11:33:45.738Z,25.06
2019-05-20T11:36:15.528Z,25.85
2019-05-20T11:38:45.403Z,27.51
2019-05-20T11:41:15.132Z,26.76
2019-05-20T11:43:44.949Z,26.57
2019-05-20T11:46:14.853Z,27.05
2019-05-20T11:48:44.785Z,28.50
2019-05-20T11:51:14.521Z,28.50
2019-05-20T11:53:44.440Z,26.88
2019-05-20T11:56:14.230Z,26.36
2019-05-20T11:58:44.028Z,26.26
2019-05-20T12:01:13.893Z,26.01
2019-05-20T12:03:43.746Z,25.24
2019-05-20T12:06:13.721Z,24.07
2019-05-20T12:08:43.538Z,25.92
2019-05-20T12:11:13.697Z,27.28
2019-05-20T12:13:43.549Z,27.89
2019-05-20T12:16:13.450Z,27.09
2019-05-20T12:18:45.171Z,25.98
2019-05-20T12:21:14.840Z,26.76
2019-05-20T12:23:44.735Z,28.70
2019-05-20T12:26:14.581Z,30.28
2019-05-20T12:28:44.494Z,31.17
2019-05-20T12:31:14.344Z,32.00
2019-05-20T12:33:44.166Z,32.31
2019-05-20T12:36:14.050Z,32.36
2019-05-20T12:38:43.944Z,31.79
2019-05-20T12:41:13.881Z,30.09
2019-05-20T12:43:44.866Z,30.17
2019-05-20T12:46:15.119Z,29.72
2019-05-20T12:48:45.148Z,30.60
2019-05-20T12:51:15.158Z,30.90
2019-05-20T12:53:44.974Z,32.16
2019-05-20T12:56:14.754Z,31.55
2019-05-20T12:58:44.663Z,31.33
2019-05-20T13:01:14.459Z,32.43
2019-05-20T13:03:44.259Z,31.44
2019-05-20T13:06:14.052Z,30.85
2019-05-20T13:08:43.962Z,30.87
2019-05-20T13:11:13.853Z,31.02
2019-05-20T13:13:43.897Z,31.81
2019-05-20T13:16:13.648Z,32.82
2019-05-20T13:18:55.396Z,33.32
2019-05-20T13:21:15.086Z,34.48
2019-05-20T13:23:48.492Z,35.07
2019-05-20T13:26:16.529Z,35.57
2019-05-20T13:28:46.271Z,36.21
2019-05-20T13:31:16.135Z,35.69
2019-05-20T13:33:46.018Z,37.09
2019-05-20T13:36:15.881Z,42.19
2019-05-20T13:38:45.672Z,41.15
2019-05-20T13:41:15.413Z,39.13
2019-05-20T13:43:45.157Z,39.37
2019-05-20T13:46:15.046Z,38.34
2019-05-20T13:48:44.943Z,37.95
2019-05-20T13:51:14.808Z,37.20
2019-05-20T13:53:44.630Z,36.92
2019-05-20T13:56:14.558Z,37.00
2019-05-20T13:58:44.270Z,36.62
2019-05-20T14:01:14.148Z,36.70
2019-05-20T14:03:44.069Z,37.64
2019-05-20T14:06:13.977Z,37.23
2019-05-20T14:08:43.788Z,36.81
2019-05-20T14:11:14.968Z,35.85
2019-05-20T14:19:34.177Z,35.42
2019-05-20T14:22:03.918Z,35.23
2019-05-20T14:24:33.763Z,35.29
2019-05-20T14:27:05.051Z,35.62
2019-05-20T14:29:34.848Z,37.25
2019-05-20T14:32:04.678Z,37.43
2019-05-20T14:34:34.516Z,38.86
2019-05-20T14:37:04.423Z,38.74
2019-05-20T14:39:34.204Z,39.01
2019-05-20T14:42:03.978Z,39.97
2019-05-20T14:44:33.757Z,41.37
2019-05-20T14:47:03.472Z,41.98
2019-05-20T14:49:33.218Z,43.37
2019-05-20T14:52:03.506Z,44.29
2019-05-20T14:54:33.515Z,42.46
2019-05-20T14:57:03.230Z,41.74
2019-05-20T14:59:33.224Z,41.03
2019-05-20T15:02:03.075Z,41.38
2019-05-20T15:04:32.935Z,43.59
2019-05-20T15:07:02.794Z,44.43
2019-05-20T15:09:32.586Z,44.69
2019-05-20T15:12:02.478Z,47.19
2019-05-20T15:14:32.234Z,46.85
2019-05-20T15:17:01.987Z,44.84
2019-05-20T15:19:31.789Z,44.50
2019-05-20T15:22:01.579Z,43.48
2019-05-20T15:24:31.368Z,42.89
2019-05-20T15:27:01.277Z,43.16
2019-05-20T15:29:31.064Z,42.78
2019-05-20T15:32:00.855Z,43.25
2019-05-20T15:34:30.546Z,42.46
2019-05-20T15:37:00.386Z,41.85
2019-05-20T15:39:30.146Z,42.10
2019-05-20T15:42:00.915Z,41.61
2019-05-20T15:44:31.045Z,41.79
2019-05-20T15:47:01.444Z,41.92
2019-05-20T15:49:31.119Z,42.32
2019-05-20T15:52:00.889Z,42.32
2019-05-20T15:54:30.621Z,42.28
2019-05-20T15:57:00.394Z,41.64
2019-05-20T15:59:44.809Z,41.89
2019-05-20T16:02:01.650Z,42.14
2019-05-20T16:04:31.345Z,42.47
2019-05-20T16:07:01.075Z,42.87
2019-05-20T16:09:30.911Z,43.34
2019-05-20T16:12:00.748Z,43.81
2019-05-20T16:14:30.479Z,43.95
2019-05-20T16:17:00.309Z,44.28
2019-05-20T16:19:30.062Z,44.70
2019-05-20T16:21:59.809Z,45.04
2019-05-20T16:24:29.546Z,45.07
2019-05-20T16:26:59.669Z,45.20
2019-05-20T16:29:30.690Z,45.44
2019-05-20T16:32:00.602Z,46.14
2019-05-20T16:34:30.375Z,48.12
2019-05-20T16:37:00.253Z,47.71
2019-05-20T16:39:31.058Z,51.84
2019-05-20T16:42:01.155Z,52.76
2019-05-20T16:44:30.981Z,54.24
2019-05-20T16:47:00.826Z,56.05
2019-05-20T16:49:30.578Z,56.84
2019-05-20T16:52:00.311Z,59.07
2019-05-20T16:54:30.135Z,59.21
2019-05-20T16:56:59.979Z,61.15
2019-05-20T16:59:29.842Z,63.19
2019-05-20T17:01:59.612Z,66.40
2019-05-20T17:04:29.350Z,67.00
2019-05-20T17:06:59.263Z,64.57
2019-05-20T17:09:29.067Z,67.86
2019-05-20T17:11:58.923Z,67.37
2019-05-20T17:14:28.709Z,67.96
2019-05-20T17:16:58.687Z,69.95
2019-05-20T17:19:28.493Z,69.40
2019-05-20T17:21:58.324Z,69.40
2019-05-20T17:24:28.160Z,71.41
2019-05-20T17:26:58.138Z,70.23
2019-05-20T17:29:28.059Z,71.29
2019-05-20T17:31:57.871Z,71.90
2019-05-20T17:34:27.764Z,70.87
2019-05-20T17:36:57.597Z,71.26
2019-05-20T17:39:27.648Z,71.37
2019-05-20T17:41:57.414Z,70.85
2019-05-20T17:44:27.131Z,72.20
2019-05-20T17:46:57.145Z,70.45
2019-05-20T17:49:27.174Z,70.45
2019-05-20T17:51:57.065Z,70.65
2019-05-20T17:54:27.064Z,71.59
2019-05-20T17:56:56.775Z,70.90
2019-05-20T17:59:26.685Z,70.91
2019-05-20T18:01:57.419Z,70.91
2019-05-20T18:04:27.228Z,70.07
2019-05-20T18:06:57.058Z,69.86
2019-05-20T18:09:28.616Z,69.82
2019-05-20T18:11:58.467Z,69.32
2019-05-20T18:14:28.344Z,68.90
2019-05-20T18:16:58.211Z,70.35
2019-05-20T18:19:28.060Z,69.44
2019-05-20T18:21:57.981Z,69.79
2019-05-20T18:24:27.883Z,69.79
2019-05-20T18:26:57.864Z,68.40
2019-05-20T18:29:27.826Z,68.26
2019-05-20T18:31:57.624Z,66.78
2019-05-20T18:34:27.580Z,67.78
2019-05-20T18:36:57.391Z,66.81
2019-05-20T18:39:27.229Z,67.44
2019-05-20T18:41:57.133Z,66.06
2019-05-20T18:44:27.028Z,64.10
2019-05-20T18:46:57.226Z,64.66
2019-05-20T18:49:27.607Z,62.97
2019-05-20T18:51:57.350Z,63.00
2019-05-20T18:54:27.219Z,63.29
2019-05-20T18:56:57.689Z,62.94
2019-05-20T18:59:27.940Z,63.65
2019-05-20T19:02:05.203Z,62.95
2019-05-20T19:04:29.250Z,63.62
2019-05-20T19:06:59.435Z,64.88
2019-05-20T19:09:29.154Z,64.05
2019-05-20T19:11:59.064Z,63.64
2019-05-20T19:14:28.907Z,64.73
2019-05-20T19:16:58.744Z,64.24
2019-05-20T19:19:29.149Z,65.29
2019-05-20T19:21:58.884Z,64.71
2019-05-20T19:24:29.197Z,65.07
2019-05-20T19:26:59.114Z,65.98
2019-05-20T19:29:29.130Z,65.77
2019-05-20T19:32:01.778Z,64.33
2019-05-20T19:34:31.146Z,65.55
2019-05-20T19:37:00.875Z,65.54
2019-05-20T19:39:31.706Z,67.91
2019-05-20T19:42:01.507Z,68.66
2019-05-20T19:44:31.386Z,69.71
2019-05-20T19:47:01.110Z,70.56
2019-05-20T19:49:31.040Z,70.45
2019-05-20T19:52:00.894Z,71.29
2019-05-20T19:54:30.666Z,71.45
2019-05-20T19:57:00.514Z,71.74
2019-05-20T19:59:30.374Z,71.41
2019-05-20T20:02:00.267Z,71.62
2019-05-20T20:04:30.452Z,72.36
2019-05-20T20:07:00.286Z,71.96
2019-05-20T20:09:30.124Z,71.84
2019-05-20T20:12:00.180Z,71.08
2019-05-20T20:14:30.008Z,71.40
2019-05-20T20:16:59.773Z,71.06
2019-05-20T20:19:29.594Z,71.26
2019-05-20T20:21:59.411Z,70.91
2019-05-20T20:24:29.403Z,71.40
2019-05-20T20:26:59.429Z,71.39
2019-05-20T20:29:29.210Z,71.76
2019-05-20T20:31:59.015Z,72.17
2019-05-20T20:34:30.656Z,72.10
2019-05-20T20:37:00.345Z,72.12
2019-05-20T20:39:30.215Z,72.48
2019-05-20T20:42:00.008Z,73.66
2019-05-20T20:44:29.798Z,74.76
2019-05-20T20:46:59.631Z,75.72
2019-05-20T20:49:29.530Z,77.57
2019-05-20T20:51:59.394Z,78.00
2019-05-20T20:54:30.088Z,78.84
2019-05-20T20:56:59.872Z,79.05
2019-05-20T20:59:29.663Z,79.12
2019-05-20T21:01:59.551Z,79.94
2019-05-20T21:04:29.268Z,79.43
2019-05-20T21:06:59.071Z,80.18
2019-05-20T21:09:28.959Z,80.14
2019-05-20T21:11:58.702Z,79.04
2019-05-20T21:14:28.539Z,78.63
2019-05-20T21:16:58.331Z,79.23
2019-05-20T21:19:28.153Z,79.11
2019-05-20T21:21:58.030Z,78.88
2019-05-20T21:24:27.941Z,79.35
2019-05-20T21:26:58.638Z,79.22
2019-05-20T21:29:32.350Z,78.50
2019-05-20T21:32:01.277Z,79.41
2019-05-20T21:34:31.291Z,79.06
2019-05-20T21:37:00.959Z,78.62
2019-05-20T21:39:30.861Z,78.99
2019-05-20T21:42:00.686Z,78.71
2019-05-20T21:44:30.534Z,78.96
2019-05-20T21:47:00.459Z,78.62
2019-05-20T21:49:30.443Z,78.59
2019-05-20T21:52:00.289Z,78.69
2019-05-20T21:54:31.400Z,78.09
2019-05-20T21:57:01.230Z,78.37
2019-05-20T21:59:30.932Z,79.31
2019-05-20T22:02:01.004Z,78.51
2019-05-20T22:04:30.799Z,78.66
2019-05-20T22:07:00.628Z,78.52
2019-05-20T22:09:30.575Z,78.76
2019-05-20T22:12:00.397Z,79.20
2019-05-20T22:14:30.274Z,78.55
2019-05-20T22:17:00.104Z,78.41
2019-05-20T22:19:29.920Z,78.06
2019-05-20T22:22:14.714Z,78.19
2019-05-20T22:24:44.430Z,77.73
2019-05-20T22:27:14.344Z,78.37
2019-05-20T22:29:45.174Z,78.44
2019-05-20T22:32:15.399Z,78.51
2019-05-20T22:34:53.107Z,78.66
2019-05-20T22:37:16.917Z,78.78
2019-05-20T22:39:47.444Z,78.33
2019-05-20T22:42:18.310Z,78.49
2019-05-20T22:44:49.411Z,78.78
2019-05-20T22:47:19.646Z,77.98
2019-05-20T22:49:50.885Z,78.75
2019-05-20T22:52:20.693Z,78.46
2019-05-20T22:54:50.512Z,78.19
2019-05-20T22:57:20.701Z,78.47
2019-05-20T22:59:50.597Z,77.77
2019-05-20T23:02:20.472Z,78.31
2019-05-20T23:04:50.427Z,78.22
2019-05-20T23:07:20.494Z,77.92
2019-05-20T23:09:50.283Z,77.70
2019-05-20T23:12:20.281Z,77.98
2019-05-20T23:14:51.909Z,78.34
2019-05-20T23:17:21.926Z,77.95
2019-05-20T23:19:52.083Z,77.46
2019-05-20T23:22:23.155Z,77.80
2019-05-20T23:24:57.726Z,77.56
2019-05-20T23:27:28.747Z,78.13
2019-05-20T23:29:58.732Z,77.83
2019-05-20T23:32:29.364Z,77.98
2019-05-20T23:34:59.210Z,78.29
2019-05-20T23:37:29.044Z,78.35
2019-05-20T23:39:58.855Z,78.30
2019-05-20T23:42:28.674Z,77.91
2019-05-20T23:44:58.532Z,77.24
2019-05-20T23:47:28.448Z,77.65
2019-05-20T23:49:58.212Z,77.32
2019-05-20T23:52:28.053Z,77.87
2019-05-20T23:54:57.870Z,77.88
2019-05-20T23:57:28.597Z,77.28
2019-05-20T23:59:58.493Z,77.89
